ZPPP METAR and TAF | Updated Today

ZPPP METAR

Kunming Changshui International Airport

Observation time: 22 min. ago

ZPPP 291100Z 22005MPS 9999 FEW030TCU SCT030 23/14 Q1012 NOSIG

Need help? Read our tutorial on how to read METARs or read the parsed version below.

Kunming Changshui International Airport (ZPPP) METAR

  • Weather conditions on Sun, 29 May 2022 11:00:00 +0000 (22 min. ago):
  • Present conditions: Dry
  • Clouds: A few at 914 meters, towering cumulus; scattered at 914 meters
  • Visibility: Greater than 10 km
  • Wind: 220 degrees at 5 knots
  • Temperature: 23 celsius
  • Dew point: 14 celsius
  • Pressure: 1012 millibars
  • Remarks: None


Useful to know...

ZPPP TAF

Kunming Changshui International Airport

TAF ZPPP 290318Z 2906/3006 22006MPS 9999 SCT026 TX27/2908Z TN15/2923Z BECMG 2915/2916 04005MPS
Observation time: 8:04 hr. ago
Need help? Read our tutorial on how to read TAFs or read the parsed version below.

Parsed version of TAF for Kunming Changshui International Airport (ZPPP)

  • From 29 May at 06:00 UTC, to day 30 of the month at 06:00 UTC
  • Clouds: Scattered at 792 meters
  • Visibility: Greater than 10 km
  • Wind: 220 degrees at 6
  • Expected to arise soon, from 29 May at 15:00 UTC, to day 29 of the month at 16:00 UTC
  • Wind: 40 degrees at 5

Airports near ZPPP

No airports found within 100nm radius.